Time;durP1;ratioP1;P1;durP2;ratioP2;P2;SDS_P1;SDS_P2;PMS_P1;PMS_P2;Temp;Humidity;BMP_temperature;BMP_pressure;BME280_temperature;BME280_humidity;BME280_pressure;Samples;Min_cycle;Max_cycle;Signal;HPM_P1;HPM_P2
2022/01/12 00:00:32;;;;;;;14.90;8.95;;;3.50;76.60;;;;;;4972650;28;20055;-46
2022/01/12 00:02:59;;;;;;;13.85;9.23;;;3.50;76.60;;;;;;4975437;28;20517;-47
2022/01/12 00:05:26;;;;;;;14.63;9.55;;;3.50;76.50;;;;;;4971377;28;20082;-48
2022/01/12 00:07:54;;;;;;;15.50;10.15;;;3.50;76.60;;;;;;4971919;28;20043;-49
2022/01/12 00:10:21;;;;;;;15.52;9.75;;;3.50;76.50;;;;;;4972295;28;20125;-49
2022/01/12 00:12:48;;;;;;;14.60;9.23;;;3.50;76.40;;;;;;4974401;28;20047;-48
2022/01/12 00:15:15;;;;;;;14.15;8.32;;;3.50;76.30;;;;;;4972996;28;20047;-48
2022/01/12 00:17:42;;;;;;;12.88;8.98;;;3.50;76.20;;;;;;4986467;28;20462;-47
2022/01/12 00:20:10;;;;;;;13.50;8.90;;;3.50;76.10;;;;;;4971804;28;20583;-48
2022/01/12 00:22:39;;;;;;;13.00;8.75;;;3.50;76.00;;;;;;4972145;28;20046;-46
2022/01/12 00:33:23;;;;;;;11.63;7.78;;;3.40;75.80;;;;;;4986558;28;20047;-47
2022/01/12 00:35:52;;;;;;;13.73;8.60;;;3.40;75.90;;;;;;4970641;28;20113;-46
2022/01/12 00:38:24;;;;;;;11.93;8.52;;;3.40;76.10;;;;;;4975093;28;20046;-49
2022/01/12 00:40:52;;;;;;;;;;;3.40;76.30;;;;;;4967557;28;20050;-48
2022/01/12 00:43:21;;;;;;;13.23;8.88;;;3.40;76.10;;;;;;4985019;28;20313;-47
2022/01/12 00:45:48;;;;;;;14.65;8.80;;;3.60;76.50;;;;;;4979308;28;20058;-46
2022/01/12 00:48:17;;;;;;;13.82;8.65;;;3.50;76.60;;;;;;4989357;28;20113;-47
2022/01/12 00:50:47;;;;;;;14.15;8.77;;;3.50;76.70;;;;;;4969634;28;20450;-46
2022/01/12 00:53:15;;;;;;;12.23;8.13;;;3.50;76.80;;;;;;4970496;28;20077;-48
2022/01/12 00:55:43;;;;;;;12.40;8.38;;;3.60;76.90;;;;;;4972068;28;20050;-45
2022/01/12 00:58:09;;;;;;;12.30;7.97;;;3.60;77.10;;;;;;4984441;28;20493;-47
2022/01/12 01:00:36;;;;;;;15.45;9.25;;;3.60;77.10;;;;;;4973475;28;20454;-50
2022/01/12 01:03:03;;;;;;;13.38;8.88;;;3.70;77.90;;;;;;5003584;22;20046;-75
2022/01/12 01:05:33;;;;;;;11.48;7.97;;;3.70;77.40;;;;;;5008116;28;20585;-76
2022/01/12 01:08:00;;;;;;;12.00;8.77;;;3.80;77.40;;;;;;5006986;28;20041;-76
2022/01/12 01:10:47;;;;;;;15.10;8.85;;;3.80;77.50;;;;;;5007713;28;20042;-75
2022/01/12 01:13:24;;;;;;;13.40;9.00;;;3.90;77.60;;;;;;5004341;28;20058;-76
2022/01/12 01:16:03;;;;;;;14.35;8.75;;;3.90;77.40;;;;;;4987166;28;20052;-76
2022/01/12 01:26:49;;;;;;;13.35;8.60;;;4.10;77.10;;;;;;5001953;28;20039;-76
2022/01/12 01:29:16;;;;;;;11.88;8.50;;;4.20;77.10;;;;;;5005320;28;20041;-76
2022/01/12 01:31:45;;;;;;;13.65;8.30;;;4.20;77.10;;;;;;5002636;28;20038;-76
2022/01/12 01:34:15;;;;;;;13.27;7.97;;;4.20;77.00;;;;;;5007954;28;20046;-76
2022/01/12 01:36:49;;;;;;;11.17;8.00;;;4.20;77.00;;;;;;5002719;28;20049;-76
2022/01/12 01:39:20;;;;;;;11.30;7.30;;;4.30;77.00;;;;;;5006500;28;20128;-76
2022/01/12 01:41:53;;;;;;;13.48;7.80;;;4.30;77.10;;;;;;5007876;28;20046;-76
2022/01/12 01:55:40;;;;;;;11.52;6.88;;;4.50;77.10;;;;;;5016013;28;20039;-76
2022/01/12 01:58:07;;;;;;;13.18;8.23;;;4.50;77.10;;;;;;4989216;28;20100;-76
2022/01/12 02:00:37;;;;;;;9.73;7.82;;;4.50;77.10;;;;;;5009431;28;20486;-76
2022/01/12 02:03:09;;;;;;;11.40;8.15;;;4.60;77.10;;;;;;5006103;28;20046;-76
2022/01/12 02:05:41;;;;;;;12.20;7.80;;;4.60;77.20;;;;;;5004731;28;20033;-76
2022/01/12 02:08:08;;;;;;;13.38;8.50;;;4.60;77.10;;;;;;5007382;28;20452;-76
2022/01/12 02:10:43;;;;;;;12.68;8.35;;;4.70;77.10;;;;;;5000704;28;20525;-76
2022/01/12 02:13:10;;;;;;;12.52;8.52;;;4.70;77.00;;;;;;4990854;28;20526;-76
2022/01/12 02:15:40;;;;;;;10.00;7.47;;;4.70;76.80;;;;;;4999073;28;20042;-76
2022/01/12 02:40:35;;;;;;;9.00;7.53;;;4.50;75.20;;;;;;4998598;28;20072;-76
2022/01/12 02:53:41;;;;;;;12.00;7.78;;;4.30;75.30;;;;;;5004095;28;20044;-76
2022/01/12 02:56:14;;;;;;;11.00;7.90;;;4.20;75.50;;;;;;4989675;28;20134;-76
2022/01/12 02:58:43;;;;;;;14.48;8.63;;;4.20;75.60;;;;;;5024110;22;20670;-49
2022/01/12 03:03:53;;;;;;;12.00;8.23;;;4.10;75.80;;;;;;4989731;28;20498;-48
2022/01/12 03:06:26;;;;;;;11.50;7.50;;;4.10;75.90;;;;;;4990750;28;20593;-49
2022/01/12 03:08:53;;;;;;;12.57;7.53;;;4.10;76.00;;;;;;4998564;28;20045;-49
2022/01/12 03:11:22;;;;;;;16.15;8.98;;;4.10;76.00;;;;;;4986068;28;20053;-48
2022/01/12 03:13:52;;;;;;;14.38;8.55;;;4.10;76.20;;;;;;4992732;28;20572;-49
2022/01/12 03:16:23;;;;;;;13.43;9.00;;;4.10;76.50;;;;;;4992661;28;20093;-48
2022/01/12 03:18:53;;;;;;;12.18;8.32;;;4.10;76.80;;;;;;4992327;28;20045;-48
2022/01/12 03:21:23;;;;;;;14.48;8.32;;;4.10;77.00;;;;;;4991066;28;20050;-48
2022/01/12 03:23:52;;;;;;;11.75;7.85;;;4.10;77.20;;;;;;4971663;28;20573;-49
2022/01/12 03:26:20;;;;;;;14.25;8.77;;;4.20;77.40;;;;;;4994026;28;20030;-48
2022/01/12 03:28:53;;;;;;;12.52;7.82;;;4.20;77.40;;;;;;4992565;28;20456;-53
2022/01/12 03:31:23;;;;;;;12.68;7.68;;;4.30;77.60;;;;;;4989700;28;20050;-52
2022/01/12 03:34:25;;;;;;;10.77;7.88;;;4.30;77.50;;;;;;4993310;28;20502;-52
2022/01/12 03:36:53;;;;;;;11.98;7.53;;;4.40;77.60;;;;;;4990906;28;20050;-53
2022/01/12 03:39:21;;;;;;;11.40;7.57;;;4.50;77.60;;;;;;4995883;28;20461;-53
2022/01/12 03:41:48;;;;;;;10.88;7.88;;;4.50;77.50;;;;;;4992167;28;20062;-52
2022/01/12 03:44:15;;;;;;;13.10;7.93;;;4.60;77.50;;;;;;4991457;28;20057;-53
2022/01/12 03:46:49;;;;;;;12.27;7.38;;;4.60;77.50;;;;;;4990563;28;20518;-53
2022/01/12 03:49:19;;;;;;;10.98;7.45;;;4.70;77.50;;;;;;4986593;28;20557;-53
2022/01/12 03:51:46;;;;;;;11.65;7.78;;;4.70;77.40;;;;;;4992367;28;20050;-52
2022/01/12 03:54:14;;;;;;;10.38;7.85;;;4.80;77.40;;;;;;4992124;28;20042;-53
2022/01/12 03:56:42;;;;;;;11.32;7.45;;;4.80;77.30;;;;;;4996884;28;20058;-53
2022/01/12 03:59:09;;;;;;;14.93;8.88;;;4.80;77.20;;;;;;4990278;28;20457;-53
2022/01/12 04:01:36;;;;;;;11.43;7.35;;;4.90;77.20;;;;;;4990746;28;20054;-51
2022/01/12 04:04:19;;;;;;;10.75;7.65;;;4.90;77.20;;;;;;4988193;28;20039;-53
2022/01/12 04:09:43;;;;;;;11.73;7.88;;;5.00;77.10;;;;;;4984908;28;20034;-48
2022/01/12 04:12:10;;;;;;;10.60;7.97;;;5.00;77.10;;;;;;4992144;28;20042;-50
2022/01/12 04:14:39;;;;;;;10.13;7.55;;;5.00;77.60;;;;;;4990558;28;20066;-53
2022/01/12 04:17:05;;;;;;;9.05;7.03;;;5.10;77.00;;;;;;4988718;28;20050;-50
2022/01/12 04:19:35;;;;;;;10.52;6.53;;;5.10;77.00;;;;;;4991155;28;20053;-51
2022/01/12 04:23:16;;;;;;;11.52;7.43;;;5.10;76.90;;;;;;4990643;28;20058;-52
2022/01/12 04:24:49;;;;;;;11.05;7.80;;;5.10;76.80;;;;;;4988234;28;20416;-51
2022/01/12 04:27:16;;;;;;;11.70;7.60;;;5.20;76.80;;;;;;4994192;28;20038;-50
2022/01/12 04:29:43;;;;;;;11.07;7.78;;;5.20;76.70;;;;;;4992319;28;20038;-48
2022/01/12 04:32:10;;;;;;;14.57;8.07;;;5.20;76.70;;;;;;4990539;28;20402;-53
2022/01/12 04:34:37;;;;;;;12.30;7.75;;;5.20;76.70;;;;;;4988383;28;20045;-49
2022/01/12 04:37:04;;;;;;;12.35;7.55;;;5.20;76.60;;;;;;4986749;28;20046;-49
2022/01/12 04:39:33;;;;;;;14.95;8.85;;;5.30;76.70;;;;;;4987217;28;20050;-51
2022/01/12 04:42:00;;;;;;;11.50;6.97;;;5.30;76.70;;;;;;4989868;28;20133;-51
2022/01/12 04:44:27;;;;;;;12.23;8.13;;;5.30;76.70;;;;;;4984685;28;20097;-48
2022/01/12 04:47:05;;;;;;;10.45;8.10;;;5.30;76.50;;;;;;4990985;28;20045;-52
2022/01/12 04:49:52;;;;;;;10.95;7.90;;;5.30;76.50;;;;;;4982915;28;20039;-50
2022/01/12 04:52:18;;;;;;;13.20;8.10;;;5.30;76.40;;;;;;4990122;28;20773;-53
2022/01/12 04:54:50;;;;;;;10.73;7.60;;;5.40;76.40;;;;;;4986701;28;20046;-50
2022/01/12 04:57:19;;;;;;;9.93;7.38;;;5.40;76.50;;;;;;4989739;28;20664;-50
2022/01/12 05:00:03;;;;;;;14.45;7.95;;;5.40;76.40;;;;;;4989271;28;20104;-49
2022/01/12 05:08:48;;;;;;;11.60;7.55;;;5.40;76.10;;;;;;4991412;28;20042;-49
2022/01/12 05:13:55;;;;;;;13.43;8.07;;;5.40;76.20;;;;;;4994225;28;20122;-50
2022/01/12 05:16:23;;;;;;;10.10;6.63;;;5.40;76.20;;;;;;4989057;28;20100;-49
2022/01/12 05:18:52;;;;;;;10.32;7.68;;;5.50;76.20;;;;;;4990897;28;20054;-49
2022/01/12 05:21:22;;;;;;;11.90;8.07;;;5.40;76.20;;;;;;4986795;28;20065;-53
2022/01/12 05:23:50;;;;;;;12.68;8.30;;;5.50;76.20;;;;;;4986238;28;20042;-53
2022/01/12 05:26:17;;;;;;;11.65;7.75;;;5.50;76.20;;;;;;4988762;28;20038;-49
2022/01/12 05:28:45;;;;;;;13.15;8.15;;;5.50;76.20;;;;;;4989580;28;20422;-51
2022/01/12 05:31:13;;;;;;;10.65;7.30;;;5.50;76.20;;;;;;4993229;28;20524;-50
2022/01/12 05:33:46;;;;;;;12.45;7.60;;;5.50;76.20;;;;;;4983661;28;20045;-49
2022/01/12 05:36:16;;;;;;;13.52;7.63;;;5.50;76.10;;;;;;4978877;28;20070;-51
2022/01/12 05:38:44;;;;;;;12.60;7.82;;;5.50;76.60;;;;;;4987343;28;20150;-49
2022/01/12 05:41:11;;;;;;;11.23;8.10;;;5.50;75.80;;;;;;4981736;28;20039;-51
2022/01/12 05:43:39;;;;;;;11.93;7.70;;;5.50;75.80;;;;;;4989454;28;20572;-53
2022/01/12 05:46:12;;;;;;;11.05;7.38;;;5.50;75.90;;;;;;4988823;28;20572;-48
2022/01/12 05:51:26;;;;;;;13.05;6.97;;;5.60;75.60;;;;;;4987223;28;19930;-53
2022/01/12 05:53:54;;;;;;;14.77;8.60;;;5.60;75.90;;;;;;4983696;28;20042;-52
2022/01/12 05:56:21;;;;;;;12.55;7.97;;;5.60;75.80;;;;;;4983017;28;20049;-53
2022/01/12 05:58:50;;;;;;;15.38;8.52;;;5.60;75.90;;;;;;4977899;28;20069;-53
2022/01/12 06:01:20;;;;;;;13.23;8.25;;;5.60;75.80;;;;;;4985118;28;20053;-50
2022/01/12 06:03:49;;;;;;;11.75;8.52;;;5.60;75.80;;;;;;4981140;28;20046;-53
2022/01/12 06:06:17;;;;;;;13.00;8.77;;;5.60;75.70;;;;;;4967123;28;20129;-53
2022/01/12 06:08:45;;;;;;;15.65;8.63;;;5.60;75.60;;;;;;4987813;28;20096;-52
2022/01/12 06:11:15;;;;;;;11.07;8.30;;;5.60;75.60;;;;;;5000542;28;20042;-49
2022/01/12 06:13:43;;;;;;;12.07;8.20;;;5.70;75.70;;;;;;4987277;28;20177;-52
2022/01/12 06:16:10;;;;;;;13.23;8.77;;;5.70;75.60;;;;;;4988330;28;20133;-50
2022/01/12 06:18:40;;;;;;;11.02;8.00;;;5.70;75.40;;;;;;4980953;28;20406;-52
2022/01/12 06:21:07;;;;;;;11.73;8.25;;;5.70;75.30;;;;;;4987859;28;20525;-52
2022/01/12 06:23:45;;;;;;;12.32;7.93;;;5.70;75.80;;;;;;4987535;28;20046;-53
2022/01/12 06:26:13;;;;;;;14.02;7.93;;;5.70;75.10;;;;;;4984508;28;20245;-53
2022/01/12 06:28:42;;;;;;;13.98;8.80;;;5.70;75.10;;;;;;4986292;28;20042;-51
2022/01/12 06:31:10;;;;;;;11.48;7.40;;;5.70;75.10;;;;;;4983966;28;20502;-53
2022/01/12 06:33:43;;;;;;;18.05;8.80;;;5.70;75.00;;;;;;4979094;28;20039;-51
2022/01/12 06:36:11;;;;;;;;;;;5.70;74.90;;;;;;4988853;28;20057;-53
2022/01/12 06:38:40;;;;;;;11.30;6.72;;;5.80;74.60;;;;;;4986915;28;19926;-52
2022/01/12 06:41:07;;;;;;;13.15;8.20;;;5.80;74.80;;;;;;4978470;28;20050;-53
2022/01/12 06:43:35;;;;;;;13.00;7.90;;;5.80;74.60;;;;;;4971788;28;20050;-52
2022/01/12 06:46:03;;;;;;;12.63;7.88;;;5.80;74.50;;;;;;4989295;28;20080;-51
2022/01/12 06:48:31;;;;;;;12.20;7.97;;;5.80;74.50;;;;;;4986716;28;20042;-52
2022/01/12 06:50:58;;;;;;;12.90;8.65;;;5.80;74.50;;;;;;4986296;28;20053;-53
2022/01/12 06:53:25;;;;;;;14.13;8.10;;;5.80;74.50;;;;;;4987419;28;20414;-49
2022/01/12 06:55:53;;;;;;;13.35;8.38;;;5.80;74.40;;;;;;4982800;28;20046;-52
2022/01/12 06:58:20;;;;;;;11.35;8.93;;;5.80;74.50;;;;;;4986530;28;20054;-52
2022/01/12 07:00:48;;;;;;;12.77;8.35;;;5.80;74.40;;;;;;4985720;28;20049;-51
2022/01/12 07:03:16;;;;;;;12.88;9.23;;;5.80;74.50;;;;;;4980240;28;20046;-51
2022/01/12 07:05:51;;;;;;;16.63;8.80;;;5.90;74.60;;;;;;4981824;28;20535;-51
2022/01/12 07:08:18;;;;;;;13.73;9.10;;;5.90;74.50;;;;;;4987008;28;20074;-52
2022/01/12 07:10:48;;;;;;;12.15;7.45;;;5.90;74.40;;;;;;4988095;28;20092;-49
2022/01/12 07:13:19;;;;;;;14.70;8.27;;;5.90;74.40;;;;;;5013374;22;20064;-74
2022/01/12 07:15:47;;;;;;;13.57;8.30;;;5.90;74.30;;;;;;5002236;28;20050;-74
2022/01/12 07:18:15;;;;;;;13.18;8.32;;;5.90;74.40;;;;;;5018565;28;20492;-74
2022/01/12 07:20:42;;;;;;;13.68;9.00;;;5.90;74.40;;;;;;4984391;28;20121;-74
2022/01/12 07:23:11;;;;;;;12.63;8.00;;;5.90;74.40;;;;;;4965411;28;20042;-74
2022/01/12 07:25:37;;;;;;;11.02;7.78;;;5.90;74.30;;;;;;4968672;28;20825;-74
2022/01/12 07:28:05;;;;;;;12.25;8.98;;;5.90;74.20;;;;;;4969149;28;20483;-74
2022/01/12 07:30:32;;;;;;;14.45;8.35;;;5.90;74.20;;;;;;4961885;28;20549;-74
2022/01/12 07:32:59;;;;;;;14.07;9.15;;;5.90;74.10;;;;;;4962304;28;20035;-74
2022/01/12 07:35:26;;;;;;;14.68;11.07;;;5.90;74.10;;;;;;4967897;28;20384;-74
2022/01/12 07:37:53;;;;;;;17.13;11.25;;;5.90;74.20;;;;;;4990798;28;20066;-74
2022/01/12 07:40:20;;;;;;;21.45;11.63;;;5.90;74.30;;;;;;4995990;28;20109;-74
2022/01/12 07:42:47;;;;;;;18.73;12.43;;;5.90;74.40;;;;;;4969921;28;20069;-75
2022/01/12 07:45:18;;;;;;;23.88;11.77;;;5.90;74.60;;;;;;4983108;28;20430;-75
2022/01/12 07:47:45;;;;;;;18.30;11.60;;;5.90;74.80;;;;;;4987714;28;20046;-75
2022/01/12 07:50:12;;;;;;;17.42;11.30;;;5.90;75.00;;;;;;4971183;28;20047;-74
2022/01/12 07:52:39;;;;;;;18.27;10.82;;;5.80;75.10;;;;;;4989079;28;20035;-74
2022/01/12 07:55:07;;;;;;;18.92;11.80;;;5.90;75.30;;;;;;4979049;28;20039;-74
2022/01/12 07:57:34;;;;;;;22.30;11.65;;;5.90;75.50;;;;;;4953044;28;20051;-74
2022/01/12 08:00:03;;;;;;;18.55;11.00;;;5.80;75.60;;;;;;4964562;28;20039;-74
2022/01/12 08:02:37;;;;;;;24.02;12.30;;;5.90;75.80;;;;;;4970402;28;20049;-74
2022/01/12 08:05:05;;;;;;;24.00;13.98;;;5.80;75.90;;;;;;4977998;28;20039;-74
2022/01/12 08:07:35;;;;;;;27.45;17.10;;;5.80;75.90;;;;;;4985946;28;20676;-74
2022/01/12 08:10:07;;;;;;;29.00;20.33;;;5.80;76.00;;;;;;4968941;28;20081;-74
2022/01/12 08:12:35;;;;;;;36.67;22.10;;;5.80;76.20;;;;;;4979911;28;20035;-74
2022/01/12 08:15:07;;;;;;;37.05;23.20;;;5.80;76.20;;;;;;4986257;28;20047;-74
2022/01/12 08:17:34;;;;;;;39.17;23.25;;;5.80;76.30;;;;;;4968682;28;20041;-74
2022/01/12 08:20:05;;;;;;;35.60;22.25;;;5.90;76.40;;;;;;4969642;28;20129;-74
2022/01/12 08:22:33;;;;;;;29.17;18.10;;;5.80;76.30;;;;;;4977088;28;20277;-74
2022/01/12 08:25:02;;;;;;;28.65;17.10;;;5.80;76.40;;;;;;4990929;28;20047;-74
2022/01/12 08:27:28;;;;;;;26.95;18.27;;;5.80;76.50;;;;;;4977723;28;20039;-74
2022/01/12 08:30:00;;;;;;;28.17;16.13;;;5.80;76.60;;;;;;4966797;28;20034;-74
2022/01/12 08:32:30;;;;;;;21.90;13.20;;;5.80;76.80;;;;;;4985659;28;20514;-74
2022/01/12 08:34:57;;;;;;;24.80;11.95;;;5.80;76.90;;;;;;4976275;28;20170;-75
2022/01/12 08:37:25;;;;;;;23.02;12.13;;;5.90;76.90;;;;;;4981201;28;20054;-79
2022/01/12 08:39:53;;;;;;;21.65;11.63;;;5.80;76.90;;;;;;4961646;28;20047;-73
2022/01/12 08:42:20;;;;;;;23.02;11.98;;;5.90;77.00;;;;;;4967514;28;20059;-74
2022/01/12 08:44:47;;;;;;;22.42;11.90;;;5.90;77.00;;;;;;4971182;28;20046;-73
2022/01/12 08:47:14;;;;;;;23.42;13.23;;;5.90;77.00;;;;;;4965624;28;20055;-74
2022/01/12 08:49:41;;;;;;;17.98;11.55;;;5.90;77.00;;;;;;4963403;28;20035;-73
2022/01/12 08:52:09;;;;;;;26.63;12.38;;;5.90;77.10;;;;;;4983237;28;20050;-73
2022/01/12 08:54:36;;;;;;;20.60;11.60;;;5.90;77.10;;;;;;4971901;28;20604;-73
2022/01/12 08:57:03;;;;;;;20.90;12.18;;;5.90;77.20;;;;;;4952529;28;20088;-74
2022/01/12 08:59:30;;;;;;;27.05;12.88;;;5.90;77.20;;;;;;4989074;23;20126;-47
2022/01/12 09:01:56;;;;;;;22.73;12.27;;;5.90;77.20;;;;;;4996319;28;20054;-48
2022/01/12 09:04:23;;;;;;;21.83;12.35;;;5.90;77.20;;;;;;4983479;28;20042;-47
2022/01/12 09:06:51;;;;;;;24.20;13.30;;;6.00;77.30;;;;;;4979590;28;20041;-50
2022/01/12 09:09:17;;;;;;;20.38;10.60;;;6.00;77.30;;;;;;4993172;28;20049;-49
2022/01/12 09:11:44;;;;;;;25.13;13.70;;;6.00;77.30;;;;;;4990562;28;20031;-47
2022/01/12 09:14:11;;;;;;;26.73;12.82;;;6.00;77.30;;;;;;4991959;28;20723;-49
2022/01/12 09:16:38;;;;;;;22.02;12.32;;;6.00;77.30;;;;;;4987834;28;20456;-49
2022/01/12 09:19:05;;;;;;;23.90;12.82;;;6.00;77.30;;;;;;4991299;28;20031;-49
2022/01/12 09:21:33;;;;;;;27.75;13.75;;;6.00;77.30;;;;;;4988073;28;20062;-47
2022/01/12 09:23:59;;;;;;;23.58;13.25;;;6.00;77.40;;;;;;4990215;28;20046;-49
2022/01/12 09:26:26;;;;;;;22.42;12.73;;;6.00;77.60;;;;;;4995856;28;20049;-50
2022/01/12 09:28:53;;;;;;;32.03;13.57;;;6.00;77.60;;;;;;4999308;28;20034;-51
2022/01/12 09:31:20;;;;;;;33.45;15.25;;;6.10;77.70;;;;;;4990305;28;20418;-49
2022/01/12 09:33:49;;;;;;;33.55;14.48;;;6.10;77.70;;;;;;4987396;28;20026;-48
2022/01/12 09:36:16;;;;;;;28.70;14.13;;;6.10;77.60;;;;;;5000989;28;20520;-49
2022/01/12 09:38:43;;;;;;;31.10;14.60;;;6.10;77.70;;;;;;5003815;28;20104;-49
2022/01/12 09:41:10;;;;;;;34.00;15.88;;;6.20;77.80;;;;;;4991291;28;20039;-49
2022/01/12 09:43:38;;;;;;;30.58;16.90;;;6.20;77.90;;;;;;5001022;28;20042;-47
2022/01/12 09:46:07;;;;;;;36.42;18.00;;;6.20;77.90;;;;;;4992228;28;20120;-48
2022/01/12 09:48:34;;;;;;;33.30;18.38;;;6.30;78.10;;;;;;4998195;28;20042;-48
2022/01/12 09:51:04;;;;;;;35.75;17.05;;;6.30;78.00;;;;;;4990437;28;20046;-51
2022/01/12 09:53:34;;;;;;;42.35;19.95;;;6.40;77.90;;;;;;4990490;28;20034;-50
2022/01/12 09:56:08;;;;;;;38.15;17.80;;;6.40;77.80;;;;;;4996118;28;20038;-50
2022/01/12 09:58:35;;;;;;;41.60;18.23;;;6.40;77.60;;;;;;4990065;28;20040;-48
2022/01/12 10:01:03;;;;;;;35.67;18.40;;;6.40;77.60;;;;;;4991737;28;20521;-51
2022/01/12 10:03:32;;;;;;;40.25;18.85;;;6.50;77.70;;;;;;4980758;28;20549;-51
2022/01/12 10:06:00;;;;;;;39.05;16.33;;;6.50;77.80;;;;;;4990067;28;20548;-48
2022/01/12 10:08:35;;;;;;;37.83;19.35;;;6.50;77.80;;;;;;4998225;28;20038;-51
2022/01/12 10:11:13;;;;;;;45.05;20.67;;;6.50;78.00;;;;;;4949159;28;20474;-47
2022/01/12 10:13:43;;;;;;;35.22;18.20;;;6.50;78.00;;;;;;4979978;28;20038;-51
2022/01/12 10:16:20;;;;;;;40.20;18.30;;;6.60;78.00;;;;;;4979243;28;20089;-47
2022/01/12 10:18:54;;;;;;;40.55;17.95;;;6.60;78.00;;;;;;4977952;28;20613;-47
2022/01/12 10:21:29;;;;;;;35.60;15.80;;;6.60;77.80;;;;;;4987193;28;20097;-47
2022/01/12 10:23:58;;;;;;;30.48;16.15;;;6.70;77.70;;;;;;4984588;28;20090;-49
2022/01/12 10:26:37;;;;;;;30.48;15.63;;;6.70;77.60;;;;;;4982841;28;20039;-51
2022/01/12 10:29:19;;;;;;;34.63;14.75;;;6.60;77.70;;;;;;4979877;28;20105;-47
2022/01/12 10:31:52;;;;;;;31.67;15.73;;;6.70;77.70;;;;;;4974231;28;20125;-48
2022/01/12 10:34:23;;;;;;;38.72;16.75;;;6.70;77.70;;;;;;4989583;28;20054;-50
2022/01/12 10:36:51;;;;;;;33.45;16.58;;;6.70;77.80;;;;;;4980669;28;20041;-49
2022/01/12 10:39:19;;;;;;;33.47;17.67;;;6.70;77.80;;;;;;4988465;28;20035;-50
2022/01/12 10:41:59;;;;;;;33.47;16.00;;;6.70;77.80;;;;;;4974024;28;20039;-47
2022/01/12 10:44:33;;;;;;;32.17;15.48;;;6.70;78.00;;;;;;5002215;28;20535;-51
2022/01/12 10:47:07;;;;;;;33.33;17.08;;;6.70;78.00;;;;;;4975660;28;20478;-48
2022/01/12 10:49:37;;;;;;;41.70;15.32;;;6.70;78.60;;;;;;4984643;28;20108;-48
2022/01/12 10:52:10;;;;;;;32.28;15.73;;;6.70;77.90;;;;;;4971219;28;20609;-50
2022/01/12 10:54:50;;;;;;;41.33;17.73;;;6.70;78.10;;;;;;4978661;28;20108;-51
2022/01/12 10:57:20;;;;;;;36.33;16.63;;;6.80;78.20;;;;;;4973291;28;20050;-48
2022/01/12 11:00:05;;;;;;;39.75;17.38;;;6.80;78.20;;;;;;4985113;28;20039;-46
2022/01/12 11:02:33;;;;;;;31.60;16.35;;;6.80;78.20;;;;;;4980985;28;20480;-50
2022/01/12 11:05:02;;;;;;;49.30;17.58;;;6.80;78.30;;;;;;4986864;28;20280;-50
2022/01/12 11:07:32;;;;;;;41.17;16.35;;;6.80;78.30;;;;;;4972347;28;20133;-47
2022/01/12 11:10:01;;;;;;;42.20;17.80;;;6.80;78.30;;;;;;4987983;28;20042;-47
2022/01/12 11:12:28;;;;;;;42.53;19.65;;;6.90;78.50;;;;;;4980227;28;20038;-48
2022/01/12 11:14:55;;;;;;;36.13;18.42;;;6.90;78.60;;;;;;4987318;28;20046;-46
2022/01/12 11:17:22;;;;;;;56.47;20.75;;;6.90;78.60;;;;;;4974713;28;20051;-49
2022/01/12 11:20:16;;;;;;;59.08;20.48;;;6.90;78.60;;;;;;4986597;28;20420;-51
2022/01/12 11:22:56;;;;;;;49.50;20.30;;;6.90;78.70;;;;;;4971871;28;20545;-46
2022/01/12 11:25:29;;;;;;;44.90;18.60;;;7.00;78.50;;;;;;4983411;28;20046;-49
2022/01/12 11:28:19;;;;;;;39.53;17.80;;;7.00;78.50;;;;;;4975835;28;20052;-52
2022/01/12 11:30:50;;;;;;;45.08;19.70;;;7.00;78.60;;;;;;4989907;28;20080;-46
2022/01/12 11:33:21;;;;;;;42.72;20.90;;;7.10;78.40;;;;;;4984188;28;20049;-47
2022/01/12 11:35:53;;;;;;;51.80;20.38;;;7.00;78.20;;;;;;4978912;28;20498;-48
2022/01/12 11:38:35;;;;;;;40.90;21.05;;;7.00;78.30;;;;;;4986308;28;20525;-51
2022/01/12 11:41:21;;;;;;;50.55;21.30;;;7.10;78.50;;;;;;4992094;28;20093;-49
2022/01/12 11:43:53;;;;;;;46.97;19.20;;;7.10;78.40;;;;;;4988866;28;20524;-47
2022/01/12 11:46:26;;;;;;;30.88;16.20;;;7.10;78.40;;;;;;4982882;28;20058;-49
2022/01/12 11:48:58;;;;;;;45.75;20.20;;;7.10;78.40;;;;;;4989169;28;20129;-50
2022/01/12 11:51:35;;;;;;;;;;;7.20;78.60;;;;;;4992235;28;20042;-49
2022/01/12 11:54:12;;;;;;;45.05;21.02;;;7.20;78.70;;;;;;4983707;28;19925;-47
2022/01/12 11:56:56;;;;;;;44.50;21.20;;;7.20;78.40;;;;;;4980425;28;20049;-50
2022/01/12 11:59:26;;;;;;;51.28;21.55;;;7.20;78.60;;;;;;4990139;28;20054;-49
2022/01/12 12:02:10;;;;;;;49.45;24.20;;;7.20;78.50;;;;;;4977351;28;20038;-49
2022/01/12 12:04:37;;;;;;;48.20;21.90;;;7.30;78.60;;;;;;4985471;28;20073;-49
2022/01/12 12:07:08;;;;;;;40.70;22.77;;;7.30;78.60;;;;;;4978089;28;20046;-51
2022/01/12 12:09:42;;;;;;;54.33;23.97;;;7.30;78.70;;;;;;4993238;28;20046;-49
2022/01/12 12:12:14;;;;;;;47.63;23.02;;;7.40;78.60;;;;;;4977248;28;20049;-50
2022/01/12 12:14:45;;;;;;;50.47;22.77;;;7.40;78.60;;;;;;4990292;28;20382;-49
2022/01/12 12:17:13;;;;;;;51.85;23.08;;;7.40;78.60;;;;;;4985198;28;20043;-49
2022/01/12 12:19:39;;;;;;;47.70;24.23;;;7.40;78.50;;;;;;4990862;28;20039;-48
2022/01/12 12:22:09;;;;;;;48.70;23.95;;;7.50;78.50;;;;;;4975414;28;20043;-48
2022/01/12 12:24:36;;;;;;;49.42;24.52;;;7.50;78.50;;;;;;4998317;28;20037;-51
2022/01/12 12:27:04;;;;;;;47.28;23.52;;;7.50;78.40;;;;;;4983696;28;20101;-48
2022/01/12 12:29:31;;;;;;;45.60;23.85;;;7.50;78.40;;;;;;4988025;28;20047;-47
2022/01/12 12:31:58;;;;;;;50.05;24.42;;;7.50;78.90;;;;;;4977423;28;20535;-50
2022/01/12 12:34:27;;;;;;;50.70;25.60;;;7.50;78.30;;;;;;4988785;28;20046;-48
2022/01/12 12:37:03;;;;;;;51.05;24.90;;;7.50;78.30;;;;;;4978985;28;20066;-49
2022/01/12 12:39:33;;;;;;;46.65;22.13;;;7.60;78.30;;;;;;4996247;28;20518;-48
2022/01/12 12:42:02;;;;;;;46.08;22.17;;;7.60;78.20;;;;;;4978904;28;20467;-51
2022/01/12 12:44:32;;;;;;;41.78;23.58;;;7.60;78.20;;;;;;4998555;28;20089;-50
2022/01/12 12:47:16;;;;;;;42.50;22.92;;;7.60;78.30;;;;;;4984383;28;20051;-51
2022/01/12 12:49:44;;;;;;;41.28;23.73;;;7.60;78.30;;;;;;4987798;28;20116;-51
2022/01/12 12:52:11;;;;;;;43.58;21.65;;;7.60;78.30;;;;;;4980647;28;20101;-50
2022/01/12 12:54:41;;;;;;;45.22;23.75;;;7.60;78.30;;;;;;5003013;28;20046;-50
2022/01/12 12:57:10;;;;;;;44.20;23.33;;;7.70;78.30;;;;;;4982900;28;20043;-48
2022/01/12 12:59:37;;;;;;;44.13;23.48;;;7.70;78.20;;;;;;4982905;28;20050;-47
2022/01/12 13:02:11;;;;;;;44.03;23.23;;;7.60;78.20;;;;;;4979160;28;20050;-47
2022/01/12 13:04:39;;;;;;;48.40;23.30;;;7.70;78.20;;;;;;4984069;28;20049;-52
2022/01/12 13:07:18;;;;;;;43.47;23.63;;;7.70;78.20;;;;;;4978651;28;20051;-50
2022/01/12 13:09:46;;;;;;;47.60;23.83;;;7.70;78.20;;;;;;4987851;28;20088;-50
2022/01/12 13:12:13;;;;;;;41.70;20.95;;;7.70;78.30;;;;;;4984127;28;20687;-47
2022/01/12 13:14:45;;;;;;;40.90;21.25;;;7.70;78.30;;;;;;5001472;28;20482;-50
2022/01/12 13:17:14;;;;;;;40.83;22.17;;;7.70;78.10;;;;;;4976132;28;20368;-50
2022/01/12 13:22:32;;;;;;;38.97;20.88;;;7.80;78.20;;;;;;4981801;28;20050;-49
2022/01/12 13:25:01;;;;;;;37.08;19.75;;;7.80;78.20;;;;;;4991572;28;20126;-49
2022/01/12 13:27:28;;;;;;;38.55;19.63;;;7.80;78.40;;;;;;4978671;28;20047;-46
2022/01/12 13:29:55;;;;;;;35.05;20.05;;;7.80;79.20;;;;;;4987322;28;20047;-48
2022/01/12 13:32:22;;;;;;;35.83;18.85;;;7.90;78.40;;;;;;4979064;28;20047;-48
2022/01/12 13:35:01;;;;;;;43.28;22.58;;;7.90;78.20;;;;;;5007560;28;20046;-49
2022/01/12 13:37:28;;;;;;;44.70;23.38;;;8.00;78.00;;;;;;4983499;28;20100;-50
2022/01/12 13:40:13;;;;;;;36.60;20.90;;;8.00;77.90;;;;;;4994294;28;20050;-51
2022/01/12 13:42:55;;;;;;;37.75;19.58;;;8.00;77.80;;;;;;4975234;28;20473;-46
2022/01/12 13:45:27;;;;;;;;;;;7.90;77.70;;;;;;5000198;28;20050;-47
2022/01/12 13:47:58;;;;;;;34.13;17.47;;;8.00;77.80;;;;;;4974166;28;20297;-49
2022/01/12 13:50:35;;;;;;;39.67;22.13;;;8.00;77.60;;;;;;4981500;28;20050;-51
2022/01/12 13:53:04;;;;;;;43.35;21.20;;;8.00;77.60;;;;;;4981169;28;20465;-47
2022/01/12 13:55:32;;;;;;;42.60;20.40;;;8.00;77.70;;;;;;4989369;28;20038;-49
2022/01/12 13:58:06;;;;;;;37.38;18.95;;;8.00;77.60;;;;;;4975506;28;20104;-48
2022/01/12 14:00:34;;;;;;;40.33;21.48;;;8.00;77.60;;;;;;4994857;28;20513;-47
2022/01/12 14:03:16;;;;;;;36.10;20.75;;;8.00;77.60;;;;;;4990317;28;20417;-47
2022/01/12 14:05:45;;;;;;;36.08;20.75;;;8.00;77.50;;;;;;4988058;28;20045;-45
2022/01/12 14:08:15;;;;;;;37.50;21.08;;;8.00;77.60;;;;;;4984214;28;20053;-47
2022/01/12 14:10:44;;;;;;;43.03;22.73;;;8.00;77.60;;;;;;4994787;28;20440;-47
2022/01/12 14:13:12;;;;;;;39.72;21.17;;;8.00;77.70;;;;;;4983823;28;20412;-47
2022/01/12 14:15:38;;;;;;;42.08;22.38;;;8.00;77.70;;;;;;4998449;28;20049;-46
2022/01/12 14:18:15;;;;;;;45.53;24.58;;;8.00;77.80;;;;;;4979571;28;20481;-50